sensor_id;sensor_type;location;lat;lon;timestamp;P1;durP1;ratioP1;P2;durP2;ratioP2
52508;SDS011;38420;53.150;6.370;2024-01-07T00:01:56;10.57;;;5.80;;
52508;SDS011;38420;53.150;6.370;2024-01-07T00:04:21;12.55;;;5.72;;
52508;SDS011;38420;53.150;6.370;2024-01-07T00:06:47;12.27;;;5.47;;
52508;SDS011;38420;53.150;6.370;2024-01-07T00:09:12;11.05;;;5.93;;
52508;SDS011;38420;53.150;6.370;2024-01-07T00:11:38;14.57;;;7.75;;
52508;SDS011;38420;53.150;6.370;2024-01-07T00:14:05;12.05;;;5.38;;
52508;SDS011;38420;53.150;6.370;2024-01-07T00:16:30;12.13;;;5.97;;
52508;SDS011;38420;53.150;6.370;2024-01-07T00:18:56;13.18;;;6.15;;
52508;SDS011;38420;53.150;6.370;2024-01-07T00:21:22;13.73;;;5.30;;
52508;SDS011;38420;53.150;6.370;2024-01-07T00:23:48;13.10;;;6.93;;
52508;SDS011;38420;53.150;6.370;2024-01-07T00:26:13;13.38;;;5.43;;
52508;SDS011;38420;53.150;6.370;2024-01-07T00:28:39;11.63;;;5.53;;
52508;SDS011;38420;53.150;6.370;2024-01-07T00:31:04;14.82;;;6.38;;
52508;SDS011;38420;53.150;6.370;2024-01-07T00:33:32;13.05;;;5.80;;
52508;SDS011;38420;53.150;6.370;2024-01-07T00:35:59;11.73;;;5.53;;
52508;SDS011;38420;53.150;6.370;2024-01-07T00:38:25;14.27;;;6.60;;
52508;SDS011;38420;53.150;6.370;2024-01-07T00:40:50;9.13;;;5.47;;
52508;SDS011;38420;53.150;6.370;2024-01-07T00:43:16;10.25;;;5.03;;
52508;SDS011;38420;53.150;6.370;2024-01-07T00:45:43;13.40;;;5.75;;
52508;SDS011;38420;53.150;6.370;2024-01-07T00:48:09;11.80;;;4.82;;
52508;SDS011;38420;53.150;6.370;2024-01-07T00:50:34;12.45;;;5.68;;
52508;SDS011;38420;53.150;6.370;2024-01-07T00:53:00;9.63;;;4.47;;
52508;SDS011;38420;53.150;6.370;2024-01-07T00:55:25;12.55;;;5.07;;
52508;SDS011;38420;53.150;6.370;2024-01-07T00:57:51;11.13;;;4.60;;
52508;SDS011;38420;53.150;6.370;2024-01-07T01:00:17;12.13;;;5.38;;
52508;SDS011;38420;53.150;6.370;2024-01-07T01:02:43;11.55;;;5.45;;
52508;SDS011;38420;53.150;6.370;2024-01-07T01:05:08;10.40;;;4.68;;
52508;SDS011;38420;53.150;6.370;2024-01-07T01:07:34;11.23;;;5.45;;
52508;SDS011;38420;53.150;6.370;2024-01-07T01:09:59;8.60;;;4.35;;
52508;SDS011;38420;53.150;6.370;2024-01-07T01:12:25;10.35;;;4.65;;
52508;SDS011;38420;53.150;6.370;2024-01-07T01:14:51;9.65;;;3.88;;
52508;SDS011;38420;53.150;6.370;2024-01-07T01:17:17;10.20;;;4.55;;
52508;SDS011;38420;53.150;6.370;2024-01-07T01:19:42;9.20;;;4.30;;
52508;SDS011;38420;53.150;6.370;2024-01-07T01:22:08;9.40;;;4.88;;
52508;SDS011;38420;53.150;6.370;2024-01-07T01:24:33;7.45;;;4.05;;
52508;SDS011;38420;53.150;6.370;2024-01-07T01:26:59;8.35;;;4.75;;
52508;SDS011;38420;53.150;6.370;2024-01-07T01:29:25;10.52;;;4.65;;
52508;SDS011;38420;53.150;6.370;2024-01-07T01:31:51;7.90;;;4.15;;
52508;SDS011;38420;53.150;6.370;2024-01-07T01:34:16;12.02;;;4.75;;
52508;SDS011;38420;53.150;6.370;2024-01-07T01:36:42;9.73;;;4.60;;
52508;SDS011;38420;53.150;6.370;2024-01-07T01:39:07;6.65;;;4.00;;
52508;SDS011;38420;53.150;6.370;2024-01-07T01:41:33;11.93;;;5.25;;
52508;SDS011;38420;53.150;6.370;2024-01-07T01:43:59;10.00;;;4.30;;
52508;SDS011;38420;53.150;6.370;2024-01-07T01:46:26;7.65;;;4.82;;
52508;SDS011;38420;53.150;6.370;2024-01-07T01:48:53;10.63;;;4.38;;
52508;SDS011;38420;53.150;6.370;2024-01-07T01:51:19;11.80;;;5.20;;
52508;SDS011;38420;53.150;6.370;2024-01-07T01:53:45;10.68;;;4.95;;
52508;SDS011;38420;53.150;6.370;2024-01-07T01:56:13;9.75;;;4.78;;
52508;SDS011;38420;53.150;6.370;2024-01-07T01:58:41;11.25;;;4.53;;
52508;SDS011;38420;53.150;6.370;2024-01-07T02:01:07;9.70;;;3.85;;
52508;SDS011;38420;53.150;6.370;2024-01-07T02:03:33;8.77;;;4.53;;
52508;SDS011;38420;53.150;6.370;2024-01-07T02:05:59;11.00;;;4.07;;
52508;SDS011;38420;53.150;6.370;2024-01-07T02:08:24;9.32;;;4.53;;
52508;SDS011;38420;53.150;6.370;2024-01-07T02:10:50;9.18;;;3.90;;
52508;SDS011;38420;53.150;6.370;2024-01-07T02:13:16;10.45;;;4.63;;
52508;SDS011;38420;53.150;6.370;2024-01-07T02:15:42;6.05;;;3.30;;
52508;SDS011;38420;53.150;6.370;2024-01-07T02:18:08;7.55;;;3.20;;
52508;SDS011;38420;53.150;6.370;2024-01-07T02:20:34;8.90;;;4.18;;
52508;SDS011;38420;53.150;6.370;2024-01-07T02:23:01;6.75;;;3.85;;
52508;SDS011;38420;53.150;6.370;2024-01-07T02:25:27;8.43;;;4.38;;
52508;SDS011;38420;53.150;6.370;2024-01-07T02:27:52;8.35;;;4.30;;
52508;SDS011;38420;53.150;6.370;2024-01-07T02:30:18;8.57;;;3.83;;
52508;SDS011;38420;53.150;6.370;2024-01-07T02:32:43;7.32;;;3.85;;
52508;SDS011;38420;53.150;6.370;2024-01-07T02:35:09;10.25;;;4.50;;
52508;SDS011;38420;53.150;6.370;2024-01-07T02:37:35;7.43;;;3.90;;
52508;SDS011;38420;53.150;6.370;2024-01-07T02:40:00;6.55;;;3.70;;
52508;SDS011;38420;53.150;6.370;2024-01-07T02:42:26;12.55;;;4.30;;
52508;SDS011;38420;53.150;6.370;2024-01-07T02:44:52;9.38;;;4.20;;
52508;SDS011;38420;53.150;6.370;2024-01-07T02:47:17;8.77;;;3.55;;
52508;SDS011;38420;53.150;6.370;2024-01-07T02:49:43;9.18;;;4.82;;
52508;SDS011;38420;53.150;6.370;2024-01-07T02:52:08;8.15;;;3.88;;
52508;SDS011;38420;53.150;6.370;2024-01-07T02:54:34;9.40;;;4.00;;
52508;SDS011;38420;53.150;6.370;2024-01-07T02:56:59;5.30;;;3.17;;
52508;SDS011;38420;53.150;6.370;2024-01-07T02:59:25;10.13;;;3.35;;
52508;SDS011;38420;53.150;6.370;2024-01-07T03:01:50;7.38;;;3.38;;
52508;SDS011;38420;53.150;6.370;2024-01-07T03:04:16;7.78;;;3.03;;
52508;SDS011;38420;53.150;6.370;2024-01-07T03:06:42;12.75;;;4.28;;
52508;SDS011;38420;53.150;6.370;2024-01-07T03:09:07;7.68;;;3.38;;
52508;SDS011;38420;53.150;6.370;2024-01-07T03:11:38;8.15;;;3.78;;
52508;SDS011;38420;53.150;6.370;2024-01-07T03:14:05;6.53;;;3.13;;
52508;SDS011;38420;53.150;6.370;2024-01-07T03:16:30;7.30;;;2.97;;
52508;SDS011;38420;53.150;6.370;2024-01-07T03:18:56;6.20;;;2.67;;
52508;SDS011;38420;53.150;6.370;2024-01-07T03:21:22;7.15;;;2.83;;
52508;SDS011;38420;53.150;6.370;2024-01-07T03:23:49;6.60;;;3.10;;
52508;SDS011;38420;53.150;6.370;2024-01-07T03:26:16;6.75;;;2.58;;
52508;SDS011;38420;53.150;6.370;2024-01-07T03:28:43;7.53;;;3.08;;
52508;SDS011;38420;53.150;6.370;2024-01-07T03:31:09;8.23;;;3.22;;
52508;SDS011;38420;53.150;6.370;2024-01-07T03:33:39;5.43;;;2.50;;
52508;SDS011;38420;53.150;6.370;2024-01-07T03:36:09;6.70;;;2.63;;
52508;SDS011;38420;53.150;6.370;2024-01-07T03:38:36;5.38;;;2.55;;
52508;SDS011;38420;53.150;6.370;2024-01-07T03:41:02;5.35;;;2.33;;
52508;SDS011;38420;53.150;6.370;2024-01-07T03:43:28;5.90;;;2.80;;
52508;SDS011;38420;53.150;6.370;2024-01-07T03:45:54;4.00;;;2.47;;
52508;SDS011;38420;53.150;6.370;2024-01-07T03:48:19;4.45;;;2.28;;
52508;SDS011;38420;53.150;6.370;2024-01-07T03:50:45;3.92;;;1.95;;
52508;SDS011;38420;53.150;6.370;2024-01-07T03:53:10;5.90;;;2.45;;
52508;SDS011;38420;53.150;6.370;2024-01-07T03:55:36;4.32;;;2.10;;
52508;SDS011;38420;53.150;6.370;2024-01-07T03:58:02;5.97;;;2.45;;
52508;SDS011;38420;53.150;6.370;2024-01-07T04:00:29;3.83;;;2.70;;
52508;SDS011;38420;53.150;6.370;2024-01-07T04:02:54;6.30;;;2.60;;
52508;SDS011;38420;53.150;6.370;2024-01-07T04:05:20;3.90;;;2.17;;
52508;SDS011;38420;53.150;6.370;2024-01-07T04:07:46;6.45;;;2.70;;
52508;SDS011;38420;53.150;6.370;2024-01-07T04:10:11;5.80;;;3.10;;
52508;SDS011;38420;53.150;6.370;2024-01-07T04:12:37;4.55;;;2.67;;
52508;SDS011;38420;53.150;6.370;2024-01-07T04:15:03;5.32;;;2.25;;
52508;SDS011;38420;53.150;6.370;2024-01-07T04:17:29;5.68;;;2.33;;
52508;SDS011;38420;53.150;6.370;2024-01-07T04:19:55;4.50;;;2.30;;
52508;SDS011;38420;53.150;6.370;2024-01-07T04:22:21;3.55;;;2.00;;
52508;SDS011;38420;53.150;6.370;2024-01-07T04:24:46;2.78;;;1.60;;
52508;SDS011;38420;53.150;6.370;2024-01-07T04:27:12;3.60;;;2.10;;
52508;SDS011;38420;53.150;6.370;2024-01-07T04:29:37;4.85;;;2.63;;
52508;SDS011;38420;53.150;6.370;2024-01-07T04:32:03;4.07;;;2.20;;
52508;SDS011;38420;53.150;6.370;2024-01-07T04:34:29;5.03;;;2.15;;
52508;SDS011;38420;53.150;6.370;2024-01-07T04:36:54;4.50;;;1.83;;
52508;SDS011;38420;53.150;6.370;2024-01-07T04:39:20;3.05;;;1.58;;
52508;SDS011;38420;53.150;6.370;2024-01-07T04:41:45;4.47;;;1.67;;
52508;SDS011;38420;53.150;6.370;2024-01-07T04:44:11;4.25;;;1.85;;
52508;SDS011;38420;53.150;6.370;2024-01-07T04:46:38;4.32;;;1.50;;
52508;SDS011;38420;53.150;6.370;2024-01-07T04:49:05;4.63;;;1.80;;
52508;SDS011;38420;53.150;6.370;2024-01-07T04:51:31;3.50;;;1.77;;
52508;SDS011;38420;53.150;6.370;2024-01-07T04:53:57;5.82;;;1.70;;
52508;SDS011;38420;53.150;6.370;2024-01-07T04:56:23;4.32;;;1.80;;
52508;SDS011;38420;53.150;6.370;2024-01-07T04:58:48;3.15;;;1.33;;
52508;SDS011;38420;53.150;6.370;2024-01-07T05:01:14;4.75;;;1.73;;
52508;SDS011;38420;53.150;6.370;2024-01-07T05:03:40;6.80;;;1.77;;
52508;SDS011;38420;53.150;6.370;2024-01-07T05:06:08;2.90;;;1.70;;
52508;SDS011;38420;53.150;6.370;2024-01-07T05:08:36;6.47;;;1.77;;
52508;SDS011;38420;53.150;6.370;2024-01-07T05:11:02;3.67;;;1.88;;
52508;SDS011;38420;53.150;6.370;2024-01-07T05:13:28;2.75;;;1.75;;
52508;SDS011;38420;53.150;6.370;2024-01-07T05:15:54;2.42;;;1.23;;
52508;SDS011;38420;53.150;6.370;2024-01-07T05:18:23;4.93;;;2.30;;
52508;SDS011;38420;53.150;6.370;2024-01-07T05:20:49;3.97;;;1.67;;
52508;SDS011;38420;53.150;6.370;2024-01-07T05:23:15;2.90;;;1.35;;
52508;SDS011;38420;53.150;6.370;2024-01-07T05:25:44;2.83;;;1.60;;
52508;SDS011;38420;53.150;6.370;2024-01-07T05:28:13;4.32;;;1.58;;
52508;SDS011;38420;53.150;6.370;2024-01-07T05:30:39;2.33;;;1.20;;
52508;SDS011;38420;53.150;6.370;2024-01-07T05:33:05;2.92;;;1.38;;
52508;SDS011;38420;53.150;6.370;2024-01-07T05:35:30;3.63;;;1.02;;
52508;SDS011;38420;53.150;6.370;2024-01-07T05:37:57;2.75;;;1.60;;
52508;SDS011;38420;53.150;6.370;2024-01-07T05:40:22;3.42;;;1.35;;
52508;SDS011;38420;53.150;6.370;2024-01-07T05:42:48;1.58;;;1.08;;
52508;SDS011;38420;53.150;6.370;2024-01-07T05:45:14;7.35;;;1.55;;
52508;SDS011;38420;53.150;6.370;2024-01-07T05:47:39;1.95;;;0.95;;
52508;SDS011;38420;53.150;6.370;2024-01-07T05:50:08;3.38;;;1.60;;
52508;SDS011;38420;53.150;6.370;2024-01-07T05:52:35;3.10;;;1.70;;
52508;SDS011;38420;53.150;6.370;2024-01-07T05:55:01;2.40;;;1.15;;
52508;SDS011;38420;53.150;6.370;2024-01-07T05:57:27;3.40;;;1.48;;
52508;SDS011;38420;53.150;6.370;2024-01-07T05:59:53;3.42;;;1.48;;
52508;SDS011;38420;53.150;6.370;2024-01-07T06:02:18;2.33;;;1.52;;
52508;SDS011;38420;53.150;6.370;2024-01-07T06:04:44;3.03;;;0.90;;
52508;SDS011;38420;53.150;6.370;2024-01-07T06:07:09;3.78;;;1.00;;
52508;SDS011;38420;53.150;6.370;2024-01-07T06:09:35;3.25;;;1.23;;
52508;SDS011;38420;53.150;6.370;2024-01-07T06:12:01;4.03;;;1.23;;
52508;SDS011;38420;53.150;6.370;2024-01-07T06:14:26;2.10;;;1.10;;
52508;SDS011;38420;53.150;6.370;2024-01-07T06:16:52;2.05;;;1.15;;
52508;SDS011;38420;53.150;6.370;2024-01-07T06:19:17;2.10;;;1.00;;
52508;SDS011;38420;53.150;6.370;2024-01-07T06:21:44;1.98;;;0.93;;
52508;SDS011;38420;53.150;6.370;2024-01-07T06:24:10;4.50;;;1.40;;
52508;SDS011;38420;53.150;6.370;2024-01-07T06:26:36;1.38;;;0.93;;
52508;SDS011;38420;53.150;6.370;2024-01-07T06:29:01;1.88;;;0.70;;
52508;SDS011;38420;53.150;6.370;2024-01-07T06:31:27;5.22;;;0.98;;
52508;SDS011;38420;53.150;6.370;2024-01-07T06:33:53;3.45;;;1.45;;
52508;SDS011;38420;53.150;6.370;2024-01-07T06:36:21;2.42;;;0.93;;
52508;SDS011;38420;53.150;6.370;2024-01-07T06:38:47;2.38;;;1.20;;
52508;SDS011;38420;53.150;6.370;2024-01-07T06:41:13;2.53;;;0.90;;
52508;SDS011;38420;53.150;6.370;2024-01-07T06:43:39;2.88;;;1.52;;
52508;SDS011;38420;53.150;6.370;2024-01-07T06:46:05;2.03;;;0.90;;
52508;SDS011;38420;53.150;6.370;2024-01-07T06:48:31;2.53;;;0.80;;
52508;SDS011;38420;53.150;6.370;2024-01-07T06:50:57;1.20;;;0.50;;
52508;SDS011;38420;53.150;6.370;2024-01-07T06:53:23;1.75;;;0.85;;
52508;SDS011;38420;53.150;6.370;2024-01-07T06:55:48;4.10;;;1.10;;
52508;SDS011;38420;53.150;6.370;2024-01-07T06:58:14;1.75;;;0.90;;
52508;SDS011;38420;53.150;6.370;2024-01-07T07:00:39;3.30;;;1.00;;
52508;SDS011;38420;53.150;6.370;2024-01-07T07:03:06;2.92;;;1.17;;
52508;SDS011;38420;53.150;6.370;2024-01-07T07:05:31;1.40;;;1.08;;
52508;SDS011;38420;53.150;6.370;2024-01-07T07:07:57;2.20;;;1.00;;
52508;SDS011;38420;53.150;6.370;2024-01-07T07:10:23;3.83;;;0.90;;
52508;SDS011;38420;53.150;6.370;2024-01-07T07:12:49;4.47;;;1.27;;
52508;SDS011;38420;53.150;6.370;2024-01-07T07:15:18;2.25;;;0.90;;
52508;SDS011;38420;53.150;6.370;2024-01-07T07:17:43;4.28;;;1.38;;
52508;SDS011;38420;53.150;6.370;2024-01-07T07:20:09;3.25;;;1.02;;
52508;SDS011;38420;53.150;6.370;2024-01-07T07:22:36;1.95;;;1.02;;
52508;SDS011;38420;53.150;6.370;2024-01-07T07:25:01;1.80;;;1.13;;
52508;SDS011;38420;53.150;6.370;2024-01-07T07:27:27;2.70;;;0.85;;
52508;SDS011;38420;53.150;6.370;2024-01-07T07:29:53;1.45;;;0.93;;
52508;SDS011;38420;53.150;6.370;2024-01-07T07:32:18;1.90;;;1.00;;
52508;SDS011;38420;53.150;6.370;2024-01-07T07:34:44;2.80;;;1.00;;
52508;SDS011;38420;53.150;6.370;2024-01-07T07:37:09;1.60;;;0.65;;
52508;SDS011;38420;53.150;6.370;2024-01-07T07:39:35;3.17;;;0.80;;
52508;SDS011;38420;53.150;6.370;2024-01-07T07:42:01;2.80;;;0.98;;
52508;SDS011;38420;53.150;6.370;2024-01-07T07:44:26;3.42;;;0.77;;
52508;SDS011;38420;53.150;6.370;2024-01-07T07:46:52;2.38;;;0.95;;
52508;SDS011;38420;53.150;6.370;2024-01-07T07:49:18;1.00;;;0.77;;
52508;SDS011;38420;53.150;6.370;2024-01-07T07:51:43;1.77;;;0.50;;
52508;SDS011;38420;53.150;6.370;2024-01-07T07:54:09;2.35;;;1.08;;
52508;SDS011;38420;53.150;6.370;2024-01-07T07:56:34;2.10;;;1.00;;
52508;SDS011;38420;53.150;6.370;2024-01-07T07:59:01;1.70;;;1.05;;
52508;SDS011;38420;53.150;6.370;2024-01-07T08:01:27;1.70;;;0.82;;
52508;SDS011;38420;53.150;6.370;2024-01-07T08:03:53;1.67;;;1.27;;
52508;SDS011;38420;53.150;6.370;2024-01-07T08:06:19;2.03;;;1.25;;
52508;SDS011;38420;53.150;6.370;2024-01-07T08:08:44;3.65;;;1.20;;
52508;SDS011;38420;53.150;6.370;2024-01-07T08:11:10;1.35;;;0.77;;
52508;SDS011;38420;53.150;6.370;2024-01-07T08:13:36;1.77;;;1.15;;
52508;SDS011;38420;53.150;6.370;2024-01-07T08:16:03;2.05;;;1.65;;
52508;SDS011;38420;53.150;6.370;2024-01-07T08:18:29;1.77;;;1.20;;
52508;SDS011;38420;53.150;6.370;2024-01-07T08:20:58;6.93;;;2.42;;
52508;SDS011;38420;53.150;6.370;2024-01-07T08:23:24;2.10;;;1.15;;
52508;SDS011;38420;53.150;6.370;2024-01-07T08:25:50;2.85;;;1.10;;
52508;SDS011;38420;53.150;6.370;2024-01-07T08:28:16;4.13;;;1.10;;
52508;SDS011;38420;53.150;6.370;2024-01-07T08:30:42;2.05;;;1.20;;
52508;SDS011;38420;53.150;6.370;2024-01-07T08:33:09;2.35;;;1.73;;
52508;SDS011;38420;53.150;6.370;2024-01-07T08:35:35;2.45;;;1.30;;
52508;SDS011;38420;53.150;6.370;2024-01-07T08:38:01;9.23;;;1.27;;
52508;SDS011;38420;53.150;6.370;2024-01-07T08:40:26;1.95;;;0.90;;
52508;SDS011;38420;53.150;6.370;2024-01-07T08:42:52;1.98;;;0.95;;
52508;SDS011;38420;53.150;6.370;2024-01-07T08:45:18;2.42;;;1.00;;
52508;SDS011;38420;53.150;6.370;2024-01-07T08:47:44;2.63;;;1.30;;
52508;SDS011;38420;53.150;6.370;2024-01-07T08:50:09;2.13;;;1.00;;
52508;SDS011;38420;53.150;6.370;2024-01-07T08:52:35;1.88;;;0.80;;
52508;SDS011;38420;53.150;6.370;2024-01-07T08:55:01;3.83;;;1.25;;
52508;SDS011;38420;53.150;6.370;2024-01-07T08:57:27;1.25;;;1.00;;
52508;SDS011;38420;53.150;6.370;2024-01-07T08:59:53;1.48;;;0.73;;
52508;SDS011;38420;53.150;6.370;2024-01-07T09:02:18;2.22;;;0.90;;
52508;SDS011;38420;53.150;6.370;2024-01-07T09:04:44;1.77;;;0.88;;
52508;SDS011;38420;53.150;6.370;2024-01-07T09:07:10;1.52;;;1.02;;
52508;SDS011;38420;53.150;6.370;2024-01-07T09:09:35;1.67;;;0.73;;
52508;SDS011;38420;53.150;6.370;2024-01-07T09:12:01;1.83;;;1.05;;
52508;SDS011;38420;53.150;6.370;2024-01-07T09:14:28;1.90;;;0.90;;
52508;SDS011;38420;53.150;6.370;2024-01-07T09:16:55;1.98;;;1.08;;
52508;SDS011;38420;53.150;6.370;2024-01-07T09:19:20;2.95;;;1.38;;
52508;SDS011;38420;53.150;6.370;2024-01-07T09:21:46;2.92;;;1.35;;
52508;SDS011;38420;53.150;6.370;2024-01-07T09:24:12;1.88;;;0.88;;
52508;SDS011;38420;53.150;6.370;2024-01-07T09:26:37;1.75;;;0.93;;
52508;SDS011;38420;53.150;6.370;2024-01-07T09:29:03;2.53;;;1.05;;
52508;SDS011;38420;53.150;6.370;2024-01-07T09:31:28;3.05;;;1.02;;
52508;SDS011;38420;53.150;6.370;2024-01-07T09:33:54;5.25;;;1.20;;
52508;SDS011;38420;53.150;6.370;2024-01-07T09:36:20;3.17;;;1.25;;
52508;SDS011;38420;53.150;6.370;2024-01-07T09:38:45;2.03;;;0.70;;
52508;SDS011;38420;53.150;6.370;2024-01-07T09:41:11;1.75;;;1.00;;
52508;SDS011;38420;53.150;6.370;2024-01-07T09:43:36;1.27;;;0.73;;
52508;SDS011;38420;53.150;6.370;2024-01-07T09:46:02;1.80;;;0.77;;
52508;SDS011;38420;53.150;6.370;2024-01-07T09:48:28;1.88;;;1.00;;
52508;SDS011;38420;53.150;6.370;2024-01-07T09:50:54;3.58;;;1.08;;
52508;SDS011;38420;53.150;6.370;2024-01-07T09:53:22;2.35;;;1.40;;
52508;SDS011;38420;53.150;6.370;2024-01-07T09:55:56;2.85;;;2.05;;
52508;SDS011;38420;53.150;6.370;2024-01-07T09:58:26;3.97;;;1.40;;
52508;SDS011;38420;53.150;6.370;2024-01-07T10:00:51;2.00;;;1.50;;
52508;SDS011;38420;53.150;6.370;2024-01-07T10:03:17;2.83;;;1.42;;
52508;SDS011;38420;53.150;6.370;2024-01-07T10:05:43;2.53;;;1.30;;
52508;SDS011;38420;53.150;6.370;2024-01-07T10:08:09;2.10;;;1.17;;
52508;SDS011;38420;53.150;6.370;2024-01-07T10:10:35;4.40;;;1.50;;
52508;SDS011;38420;53.150;6.370;2024-01-07T10:13:01;2.72;;;1.40;;
52508;SDS011;38420;53.150;6.370;2024-01-07T10:15:27;1.98;;;1.35;;
52508;SDS011;38420;53.150;6.370;2024-01-07T10:18:00;2.10;;;1.20;;
52508;SDS011;38420;53.150;6.370;2024-01-07T10:20:28;2.50;;;1.27;;
52508;SDS011;38420;53.150;6.370;2024-01-07T10:22:56;2.10;;;1.27;;
52508;SDS011;38420;53.150;6.370;2024-01-07T10:25:22;3.63;;;1.23;;
52508;SDS011;38420;53.150;6.370;2024-01-07T10:27:47;2.17;;;1.52;;
52508;SDS011;38420;53.150;6.370;2024-01-07T10:30:15;4.25;;;1.17;;
52508;SDS011;38420;53.150;6.370;2024-01-07T10:32:41;2.05;;;0.88;;
52508;SDS011;38420;53.150;6.370;2024-01-07T10:35:08;2.67;;;1.40;;
52508;SDS011;38420;53.150;6.370;2024-01-07T10:37:42;3.33;;;1.80;;
52508;SDS011;38420;53.150;6.370;2024-01-07T10:40:11;2.33;;;1.40;;
52508;SDS011;38420;53.150;6.370;2024-01-07T10:42:36;4.70;;;1.80;;
52508;SDS011;38420;53.150;6.370;2024-01-07T10:45:04;3.70;;;1.55;;
52508;SDS011;38420;53.150;6.370;2024-01-07T10:47:30;1.85;;;1.17;;
52508;SDS011;38420;53.150;6.370;2024-01-07T10:49:56;2.88;;;1.35;;
52508;SDS011;38420;53.150;6.370;2024-01-07T10:52:24;4.70;;;1.63;;
52508;SDS011;38420;53.150;6.370;2024-01-07T10:54:52;4.45;;;1.20;;
52508;SDS011;38420;53.150;6.370;2024-01-07T11:00:08;3.38;;;1.40;;
52508;SDS011;38420;53.150;6.370;2024-01-07T11:05:47;2.15;;;1.27;;
52508;SDS011;38420;53.150;6.370;2024-01-07T11:08:24;3.22;;;1.42;;
52508;SDS011;38420;53.150;6.370;2024-01-07T11:11:07;8.20;;;2.15;;
52508;SDS011;38420;53.150;6.370;2024-01-07T11:13:39;3.58;;;1.70;;
52508;SDS011;38420;53.150;6.370;2024-01-07T11:16:06;4.30;;;1.42;;
52508;SDS011;38420;53.150;6.370;2024-01-07T11:18:39;3.10;;;1.50;;
52508;SDS011;38420;53.150;6.370;2024-01-07T11:21:21;3.20;;;1.60;;
52508;SDS011;38420;53.150;6.370;2024-01-07T11:23:47;2.78;;;1.30;;
52508;SDS011;38420;53.150;6.370;2024-01-07T11:26:12;4.60;;;1.67;;
52508;SDS011;38420;53.150;6.370;2024-01-07T11:28:48;2.13;;;1.13;;
52508;SDS011;38420;53.150;6.370;2024-01-07T11:31:16;3.03;;;1.30;;
52508;SDS011;38420;53.150;6.370;2024-01-07T11:33:43;2.63;;;1.50;;
52508;SDS011;38420;53.150;6.370;2024-01-07T11:36:14;5.10;;;1.65;;
52508;SDS011;38420;53.150;6.370;2024-01-07T11:38:44;3.10;;;1.50;;
52508;SDS011;38420;53.150;6.370;2024-01-07T11:41:12;3.95;;;1.45;;
52508;SDS011;38420;53.150;6.370;2024-01-07T11:43:51;3.55;;;1.60;;
52508;SDS011;38420;53.150;6.370;2024-01-07T11:46:18;3.58;;;1.50;;
52508;SDS011;38420;53.150;6.370;2024-01-07T11:48:45;3.25;;;1.83;;
52508;SDS011;38420;53.150;6.370;2024-01-07T11:51:11;2.20;;;1.58;;
52508;SDS011;38420;53.150;6.370;2024-01-07T11:53:37;5.30;;;2.00;;
52508;SDS011;38420;53.150;6.370;2024-01-07T11:56:02;4.60;;;2.50;;
52508;SDS011;38420;53.150;6.370;2024-01-07T11:58:28;11.18;;;2.55;;
52508;SDS011;38420;53.150;6.370;2024-01-07T12:00:54;3.60;;;2.65;;
52508;SDS011;38420;53.150;6.370;2024-01-07T12:03:20;4.53;;;2.40;;
52508;SDS011;38420;53.150;6.370;2024-01-07T12:05:46;7.47;;;2.15;;
52508;SDS011;38420;53.150;6.370;2024-01-07T12:08:12;5.57;;;2.33;;
52508;SDS011;38420;53.150;6.370;2024-01-07T12:10:39;3.60;;;1.90;;
52508;SDS011;38420;53.150;6.370;2024-01-07T12:13:05;6.18;;;2.25;;
52508;SDS011;38420;53.150;6.370;2024-01-07T12:15:31;6.07;;;2.08;;
52508;SDS011;38420;53.150;6.370;2024-01-07T12:17:58;5.18;;;2.45;;
52508;SDS011;38420;53.150;6.370;2024-01-07T12:20:26;5.07;;;2.13;;
52508;SDS011;38420;53.150;6.370;2024-01-07T12:22:55;6.15;;;2.25;;
52508;SDS011;38420;53.150;6.370;2024-01-07T12:25:21;7.15;;;2.63;;
52508;SDS011;38420;53.150;6.370;2024-01-07T12:27:50;5.22;;;3.08;;
52508;SDS011;38420;53.150;6.370;2024-01-07T12:30:19;5.05;;;2.50;;
52508;SDS011;38420;53.150;6.370;2024-01-07T12:32:45;5.55;;;2.90;;
52508;SDS011;38420;53.150;6.370;2024-01-07T12:35:11;6.95;;;2.70;;
52508;SDS011;38420;53.150;6.370;2024-01-07T12:37:37;3.97;;;2.22;;
52508;SDS011;38420;53.150;6.370;2024-01-07T12:40:03;6.93;;;2.25;;
52508;SDS011;38420;53.150;6.370;2024-01-07T12:42:29;5.40;;;2.28;;
52508;SDS011;38420;53.150;6.370;2024-01-07T12:44:55;5.53;;;2.22;;
52508;SDS011;38420;53.150;6.370;2024-01-07T12:47:21;7.15;;;2.35;;
52508;SDS011;38420;53.150;6.370;2024-01-07T12:49:46;5.97;;;2.53;;
52508;SDS011;38420;53.150;6.370;2024-01-07T12:52:12;5.25;;;2.33;;
52508;SDS011;38420;53.150;6.370;2024-01-07T12:54:38;4.78;;;2.22;;
52508;SDS011;38420;53.150;6.370;2024-01-07T12:57:03;6.20;;;2.58;;
52508;SDS011;38420;53.150;6.370;2024-01-07T12:59:29;4.20;;;1.98;;
52508;SDS011;38420;53.150;6.370;2024-01-07T13:01:55;6.18;;;2.38;;
52508;SDS011;38420;53.150;6.370;2024-01-07T13:04:21;4.97;;;2.33;;
52508;SDS011;38420;53.150;6.370;2024-01-07T13:06:46;7.03;;;2.50;;
52508;SDS011;38420;53.150;6.370;2024-01-07T13:09:12;5.22;;;2.38;;
52508;SDS011;38420;53.150;6.370;2024-01-07T13:11:38;4.25;;;2.33;;
52508;SDS011;38420;53.150;6.370;2024-01-07T13:14:03;4.38;;;2.13;;
52508;SDS011;38420;53.150;6.370;2024-01-07T13:16:29;9.95;;;3.03;;
52508;SDS011;38420;53.150;6.370;2024-01-07T13:18:54;9.02;;;3.47;;
52508;SDS011;38420;53.150;6.370;2024-01-07T13:21:20;3.95;;;1.98;;
52508;SDS011;38420;53.150;6.370;2024-01-07T13:23:46;5.80;;;2.08;;
52508;SDS011;38420;53.150;6.370;2024-01-07T13:26:13;7.70;;;2.72;;
52508;SDS011;38420;53.150;6.370;2024-01-07T13:28:39;5.20;;;2.85;;
52508;SDS011;38420;53.150;6.370;2024-01-07T13:31:04;4.90;;;3.03;;
52508;SDS011;38420;53.150;6.370;2024-01-07T13:33:31;7.50;;;3.17;;
52508;SDS011;38420;53.150;6.370;2024-01-07T13:35:57;7.57;;;2.75;;
52508;SDS011;38420;53.150;6.370;2024-01-07T13:38:23;5.50;;;2.63;;
52508;SDS011;38420;53.150;6.370;2024-01-07T13:40:48;5.15;;;2.75;;
52508;SDS011;38420;53.150;6.370;2024-01-07T13:43:14;6.45;;;3.53;;
52508;SDS011;38420;53.150;6.370;2024-01-07T13:45:40;5.13;;;2.85;;
52508;SDS011;38420;53.150;6.370;2024-01-07T13:48:06;9.02;;;3.28;;
52508;SDS011;38420;53.150;6.370;2024-01-07T13:50:32;8.52;;;3.22;;
52508;SDS011;38420;53.150;6.370;2024-01-07T13:52:58;8.25;;;3.40;;
52508;SDS011;38420;53.150;6.370;2024-01-07T13:55:24;8.68;;;3.50;;
52508;SDS011;38420;53.150;6.370;2024-01-07T13:57:50;5.40;;;2.88;;
52508;SDS011;38420;53.150;6.370;2024-01-07T14:00:15;7.32;;;3.30;;
52508;SDS011;38420;53.150;6.370;2024-01-07T14:02:43;5.57;;;2.70;;
52508;SDS011;38420;53.150;6.370;2024-01-07T14:05:14;8.18;;;3.60;;
52508;SDS011;38420;53.150;6.370;2024-01-07T14:07:40;7.60;;;2.95;;
52508;SDS011;38420;53.150;6.370;2024-01-07T14:10:06;7.13;;;2.88;;
52508;SDS011;38420;53.150;6.370;2024-01-07T14:12:33;7.03;;;3.00;;
52508;SDS011;38420;53.150;6.370;2024-01-07T14:14:59;6.68;;;3.20;;
52508;SDS011;38420;53.150;6.370;2024-01-07T14:17:25;4.55;;;2.65;;
52508;SDS011;38420;53.150;6.370;2024-01-07T14:19:50;5.57;;;2.45;;
52508;SDS011;38420;53.150;6.370;2024-01-07T14:22:21;4.82;;;2.85;;
52508;SDS011;38420;53.150;6.370;2024-01-07T14:24:47;9.40;;;3.17;;
52508;SDS011;38420;53.150;6.370;2024-01-07T14:27:17;7.45;;;2.75;;
52508;SDS011;38420;53.150;6.370;2024-01-07T14:29:43;5.05;;;2.38;;
52508;SDS011;38420;53.150;6.370;2024-01-07T14:32:09;5.30;;;2.97;;
52508;SDS011;38420;53.150;6.370;2024-01-07T14:34:38;7.10;;;2.47;;
52508;SDS011;38420;53.150;6.370;2024-01-07T14:37:08;5.57;;;2.47;;
52508;SDS011;38420;53.150;6.370;2024-01-07T14:39:38;5.03;;;2.70;;
52508;SDS011;38420;53.150;6.370;2024-01-07T14:42:04;9.27;;;2.75;;
52508;SDS011;38420;53.150;6.370;2024-01-07T14:44:30;6.53;;;2.65;;
52508;SDS011;38420;53.150;6.370;2024-01-07T14:46:55;5.32;;;2.00;;